Olesa de Montserrat, Spain
Current Conditions -  °F | °C
As of 3:30 AM on Monday 24 Nov 2014 (Local Time) from LEBL Reporting Station
Few Clouds Few Clouds  
Wind Chill: 64°   Ceiling: Unl
Heat Index: 64°   Visibility: 6mi
Dew Point: 59°   Wind: 6mph
Humidity: 83%   Direction: 340°NNW
Pressure: 30"   Gusts: NA
Location:  41.54°N, 1.89°E
Report Text: LEBL 240230Z 34005KT 9999 FEW010 18/15 Q1016 NOSIG
Loading
Personal Weather Stations






























Interactive Weather Map New forecast layout! Learn more

10-Day Weather Forecast

Advertisements
Track Severe Weather on mobile